Time;durP1;ratioP1;P1;durP2;ratioP2;P2;SDS_P1;SDS_P2;PMS_P1;PMS_P2;Temp;Humidity;BMP_temperature;BMP_pressure;BME280_temperature;BME280_humidity;BME280_pressure;Samples;Min_cycle;Max_cycle;Signal;HPM_P1;HPM_P2
2021/10/13 00:00:12;;;;;;;2.00;1.52;;;;;;;;;;5035489;28;20025;-53
2021/10/13 00:02:38;;;;;;;1.77;1.50;;;;;;;;;;5034079;28;20423;-53
2021/10/13 00:05:05;;;;;;;2.83;1.48;;;;;;;;;;5034951;28;20029;-53
2021/10/13 00:07:31;;;;;;;1.90;1.55;;;;;;;;;;5034980;28;20113;-53
2021/10/13 00:09:57;;;;;;;2.45;1.80;;;;;;;;;;5035610;28;20404;-53
2021/10/13 00:12:24;;;;;;;4.55;1.60;;;;;;;;;;5034868;28;20061;-53
2021/10/13 00:14:50;;;;;;;2.40;1.50;;;;;;;;;;5034507;28;20045;-53
2021/10/13 00:17:16;;;;;;;2.25;1.52;;;;;;;;;;5034889;28;20355;-53
2021/10/13 00:19:42;;;;;;;2.03;1.52;;;;;;;;;;5035043;28;20444;-53
2021/10/13 00:22:08;;;;;;;4.32;1.55;;;;;;;;;;5034642;28;20032;-53
2021/10/13 00:24:34;;;;;;;2.05;1.38;;;;;;;;;;5034215;28;20052;-53
2021/10/13 00:27:00;;;;;;;1.85;1.20;;;;;;;;;;5035197;28;20022;-53
2021/10/13 00:29:27;;;;;;;1.65;1.25;;;;;;;;;;5035043;28;20021;-54
2021/10/13 00:31:53;;;;;;;2.70;1.30;;;;;;;;;;5035058;28;20036;-53
2021/10/13 00:34:19;;;;;;;3.28;2.10;;;;;;;;;;5034420;28;20014;-53
2021/10/13 00:36:45;;;;;;;3.03;2.08;;;;;;;;;;5034215;28;20102;-53
2021/10/13 00:39:11;;;;;;;1.60;1.35;;;;;;;;;;5034728;28;20034;-53
2021/10/13 00:41:37;;;;;;;4.97;2.00;;;;;;;;;;5035089;28;20028;-53
2021/10/13 00:44:03;;;;;;;1.75;1.65;;;;;;;;;;5033905;28;20017;-53
2021/10/13 00:46:29;;;;;;;2.67;1.70;;;;;;;;;;5034844;28;20029;-53
2021/10/13 00:48:55;;;;;;;3.17;2.05;;;;;;;;;;5034280;28;20026;-53
2021/10/13 00:51:21;;;;;;;2.80;1.98;;;;;;;;;;5034433;28;20087;-53
2021/10/13 00:53:47;;;;;;;2.20;1.85;;;;;;;;;;5033804;28;20018;-53
2021/10/13 00:56:13;;;;;;;3.90;2.25;;;;;;;;;;5034362;28;20122;-53
2021/10/13 00:58:39;;;;;;;2.42;1.67;;;;;;;;;;5033988;28;20401;-53
2021/10/13 01:01:20;;;;;;;3.47;2.00;;;;;;;;;;5034600;28;20083;-53
2021/10/13 01:03:46;;;;;;;;;;;;;;;;;;5033891;28;20033;-54
2021/10/13 01:06:15;;;;;;;2.38;1.60;;;;;;;;;;5033179;28;20417;-53
2021/10/13 01:08:47;;;;;;;4.07;2.22;;;;;;;;;;5034409;28;20029;-53
2021/10/13 01:11:16;;;;;;;4.18;2.00;;;;;;;;;;5034743;28;20078;-53
2021/10/13 01:13:48;;;;;;;3.50;1.60;;;;;;;;;;5032601;28;20378;-53
2021/10/13 01:16:18;;;;;;;2.75;2.00;;;;;;;;;;5034188;28;20037;-53
2021/10/13 01:18:44;;;;;;;2.63;2.08;;;;;;;;;;5033768;28;20450;-53
2021/10/13 01:21:33;;;;;;;2.97;1.85;;;;;;;;;;5033743;28;20470;-53
2021/10/13 01:24:14;;;;;;;3.95;2.15;;;;;;;;;;5022706;28;20184;-53
2021/10/13 01:26:46;;;;;;;5.35;2.05;;;;;;;;;;5033894;28;20048;-53
2021/10/13 01:29:14;;;;;;;3.60;2.03;;;;;;;;;;5033950;28;20026;-54
2021/10/13 01:31:44;;;;;;;2.72;1.75;;;;;;;;;;5033719;28;20061;-54
2021/10/13 01:34:13;;;;;;;5.47;1.60;;;;;;;;;;5032617;28;20033;-53
2021/10/13 01:36:47;;;;;;;2.33;1.73;;;;;;;;;;5033548;28;20052;-54
2021/10/13 01:39:14;;;;;;;1.75;1.48;;;;;;;;;;5033755;28;20033;-53
2021/10/13 01:41:41;;;;;;;1.88;1.63;;;;;;;;;;5033362;28;20114;-53
2021/10/13 01:44:10;;;;;;;2.45;1.65;;;;;;;;;;5032960;28;20018;-53
2021/10/13 01:46:36;;;;;;;2.38;1.88;;;;;;;;;;5033086;28;20469;-53
2021/10/13 01:49:04;;;;;;;2.35;2.05;;;;;;;;;;5033305;28;20032;-53
2021/10/13 01:51:30;;;;;;;1.85;1.48;;;;;;;;;;5033041;28;20026;-54
2021/10/13 01:53:58;;;;;;;3.60;2.00;;;;;;;;;;5032488;28;20026;-54
2021/10/13 01:56:25;;;;;;;2.83;1.85;;;;;;;;;;5033580;28;20036;-53
2021/10/13 01:58:54;;;;;;;2.75;1.65;;;;;;;;;;5033550;28;20108;-53
2021/10/13 02:01:23;;;;;;;1.60;1.30;;;;;;;;;;5032141;28;20056;-53
2021/10/13 02:03:49;;;;;;;3.60;1.55;;;;;;;;;;5032097;28;20022;-53
2021/10/13 02:06:16;;;;;;;4.10;1.30;;;;;;;;;;5028095;28;20031;-53
2021/10/13 02:08:43;;;;;;;1.92;1.38;;;;;;;;;;5033035;28;20485;-54
2021/10/13 02:11:10;;;;;;;1.75;1.48;;;;;;;;;;5033013;28;20017;-53
2021/10/13 02:13:36;;;;;;;2.58;1.95;;;;;;;;;;5032371;28;20029;-53
2021/10/13 02:16:03;;;;;;;4.03;1.80;;;;;;;;;;5032446;28;20042;-53
2021/10/13 02:18:30;;;;;;;3.00;1.95;;;;;;;;;;5032998;28;20018;-53
2021/10/13 02:20:57;;;;;;;4.57;1.58;;;;;;;;;;5032908;28;20158;-53
2021/10/13 02:23:25;;;;;;;3.58;2.08;;;;;;;;;;5032853;28;20026;-53
2021/10/13 02:25:53;;;;;;;3.67;2.13;;;;;;;;;;5032185;28;20022;-53
2021/10/13 02:28:25;;;;;;;3.47;2.13;;;;;;;;;;5032550;28;20025;-54
2021/10/13 02:30:53;;;;;;;3.10;1.80;;;;;;;;;;5032877;28;20470;-54
2021/10/13 02:33:19;;;;;;;2.45;1.70;;;;;;;;;;5032335;28;20456;-53
2021/10/13 02:35:45;;;;;;;6.50;1.65;;;;;;;;;;5032218;28;20038;-53
2021/10/13 02:38:11;;;;;;;3.08;1.88;;;;;;;;;;5032775;28;20440;-53
2021/10/13 02:40:37;;;;;;;4.63;2.28;;;;;;;;;;5032921;28;20026;-53
2021/10/13 02:43:04;;;;;;;3.65;2.20;;;;;;;;;;5032476;28;20068;-53
2021/10/13 02:45:32;;;;;;;2.45;1.90;;;;;;;;;;5032259;28;20128;-53
2021/10/13 02:48:03;;;;;;;4.13;1.70;;;;;;;;;;5032400;28;20439;-53
2021/10/13 02:50:35;;;;;;;3.42;1.90;;;;;;;;;;5033208;28;20033;-53
2021/10/13 02:53:01;;;;;;;3.30;2.00;;;;;;;;;;5032321;28;20021;-53
2021/10/13 02:55:33;;;;;;;2.63;1.70;;;;;;;;;;5031423;28;20099;-53
2021/10/13 02:58:15;;;;;;;4.25;1.60;;;;;;;;;;5032805;28;20109;-53
2021/10/13 03:00:44;;;;;;;3.05;1.42;;;;;;;;;;5033027;28;20053;-53
2021/10/13 03:03:16;;;;;;;3.42;1.60;;;;;;;;;;5031653;28;20025;-52
2021/10/13 03:05:44;;;;;;;4.88;1.85;;;;;;;;;;5031974;28;20084;-53
2021/10/13 03:08:11;;;;;;;8.68;1.70;;;;;;;;;;5032695;28;20028;-53
2021/10/13 03:10:38;;;;;;;3.10;1.67;;;;;;;;;;5032955;28;20040;-53
2021/10/13 03:13:06;;;;;;;3.97;1.95;;;;;;;;;;5032382;28;20451;-53
2021/10/13 03:15:33;;;;;;;3.42;1.50;;;;;;;;;;5031955;28;20057;-53
2021/10/13 03:18:00;;;;;;;2.08;1.45;;;;;;;;;;5032330;28;20018;-53
2021/10/13 03:20:27;;;;;;;5.68;2.30;;;;;;;;;;5032268;28;20348;-53
2021/10/13 03:22:56;;;;;;;2.67;1.55;;;;;;;;;;5032463;28;20021;-53
2021/10/13 03:25:22;;;;;;;4.20;1.75;;;;;;;;;;5031851;28;20429;-53
2021/10/13 03:27:48;;;;;;;3.00;1.73;;;;;;;;;;5032679;28;20021;-53
2021/10/13 03:30:14;;;;;;;3.35;1.90;;;;;;;;;;5035539;28;20072;-53
2021/10/13 03:32:43;;;;;;;4.05;1.52;;;;;;;;;;5035635;28;20017;-53
2021/10/13 03:35:09;;;;;;;3.53;2.03;;;;;;;;;;5035224;28;20022;-53
2021/10/13 03:37:35;;;;;;;2.30;1.90;;;;;;;;;;5035969;28;20022;-53
2021/10/13 03:40:01;;;;;;;2.28;1.50;;;;;;;;;;5035837;28;20021;-53
2021/10/13 03:42:27;;;;;;;2.80;1.92;;;;;;;;;;5035861;28;20022;-53
2021/10/13 03:44:53;;;;;;;6.40;2.42;;;;;;;;;;5035206;28;20343;-53
2021/10/13 03:47:19;;;;;;;1.73;1.63;;;;;;;;;;5035372;28;20041;-53
2021/10/13 03:49:45;;;;;;;1.52;1.42;;;;;;;;;;5036041;28;20023;-53
2021/10/13 03:52:11;;;;;;;2.55;1.85;;;;;;;;;;5035642;28;20022;-53
2021/10/13 03:54:37;;;;;;;4.88;2.38;;;;;;;;;;5034951;28;20068;-53
2021/10/13 03:57:03;;;;;;;2.78;1.95;;;;;;;;;;5035633;28;20037;-54
2021/10/13 03:59:29;;;;;;;3.65;2.28;;;;;;;;;;5035630;28;20025;-53
2021/10/13 04:01:55;;;;;;;6.05;2.30;;;;;;;;;;5033918;28;20029;-53
2021/10/13 04:04:21;;;;;;;2.15;1.80;;;;;;;;;;5035087;28;20053;-53
2021/10/13 04:06:47;;;;;;;2.65;1.95;;;;;;;;;;5035031;28;20452;-54
2021/10/13 04:09:13;;;;;;;3.15;1.67;;;;;;;;;;5035443;28;20052;-53
2021/10/13 04:11:39;;;;;;;2.53;1.58;;;;;;;;;;5034987;28;20412;-53
2021/10/13 04:14:05;;;;;;;2.60;1.70;;;;;;;;;;5034653;28;20112;-53
2021/10/13 04:16:31;;;;;;;1.88;1.40;;;;;;;;;;5035185;28;20118;-53
2021/10/13 04:18:57;;;;;;;2.75;1.80;;;;;;;;;;5035075;28;20431;-52
2021/10/13 04:21:23;;;;;;;3.03;1.98;;;;;;;;;;5034756;28;20044;-53
2021/10/13 04:23:49;;;;;;;3.08;2.03;;;;;;;;;;5034271;28;20057;-53
2021/10/13 04:26:15;;;;;;;4.90;2.10;;;;;;;;;;5034685;28;20103;-53
2021/10/13 04:28:41;;;;;;;3.88;1.67;;;;;;;;;;5034798;28;20041;-53
2021/10/13 04:31:07;;;;;;;4.05;1.90;;;;;;;;;;5034977;28;20103;-53
2021/10/13 04:33:33;;;;;;;8.60;2.55;;;;;;;;;;5034049;28;20067;-53
2021/10/13 04:35:59;;;;;;;4.38;2.13;;;;;;;;;;5034958;28;20065;-53
2021/10/13 04:38:25;;;;;;;3.55;2.03;;;;;;;;;;5034126;28;20025;-53
2021/10/13 04:40:51;;;;;;;2.05;1.50;;;;;;;;;;5034648;28;20108;-53
2021/10/13 04:43:17;;;;;;;4.75;2.05;;;;;;;;;;5034732;28;20483;-53
2021/10/13 04:45:43;;;;;;;3.67;2.28;;;;;;;;;;5033858;28;20056;-53
2021/10/13 04:48:09;;;;;;;2.45;1.73;;;;;;;;;;5034477;28;20107;-53
2021/10/13 04:50:35;;;;;;;4.95;1.70;;;;;;;;;;5034552;28;20034;-53
2021/10/13 04:53:01;;;;;;;3.08;1.88;;;;;;;;;;5034291;28;20088;-53
2021/10/13 04:55:27;;;;;;;3.72;2.33;;;;;;;;;;5033509;28;20040;-53
2021/10/13 04:57:53;;;;;;;2.95;1.98;;;;;;;;;;5034630;28;20108;-53
2021/10/13 05:00:19;;;;;;;6.22;2.10;;;;;;;;;;5034515;28;20045;-53
2021/10/13 05:02:45;;;;;;;2.58;1.60;;;;;;;;;;5032642;28;20419;-53
2021/10/13 05:05:11;;;;;;;3.00;2.15;;;;;;;;;;5033669;28;20033;-53
2021/10/13 05:07:37;;;;;;;4.70;2.17;;;;;;;;;;5034012;28;20067;-53
2021/10/13 05:10:03;;;;;;;2.17;1.75;;;;;;;;;;5034394;28;20029;-53
2021/10/13 05:12:29;;;;;;;3.05;2.00;;;;;;;;;;5034287;28;20025;-53
2021/10/13 05:14:55;;;;;;;5.03;2.42;;;;;;;;;;5032798;28;20116;-53
2021/10/13 05:17:21;;;;;;;8.40;2.33;;;;;;;;;;5034298;28;20025;-53
2021/10/13 05:19:47;;;;;;;6.75;2.45;;;;;;;;;;5033924;28;20367;-53
2021/10/13 05:22:13;;;;;;;3.20;2.08;;;;;;;;;;5033763;28;20030;-53
2021/10/13 05:24:39;;;;;;;2.33;1.70;;;;;;;;;;5032642;28;20079;-53
2021/10/13 05:27:05;;;;;;;3.80;2.15;;;;;;;;;;5034246;28;20351;-53
2021/10/13 05:29:31;;;;;;;4.75;3.15;;;;;;;;;;5033869;28;20041;-53
2021/10/13 05:31:57;;;;;;;3.75;2.30;;;;;;;;;;5033835;28;20030;-53
2021/10/13 05:34:23;;;;;;;3.28;2.15;;;;;;;;;;5032894;28;20030;-53
2021/10/13 05:36:49;;;;;;;9.15;2.50;;;;;;;;;;5033330;28;20029;-54
2021/10/13 05:39:16;;;;;;;3.47;2.03;;;;;;;;;;5033323;28;20084;-53
2021/10/13 05:41:42;;;;;;;4.10;2.20;;;;;;;;;;5033697;28;20065;-54
2021/10/13 05:44:08;;;;;;;5.03;2.03;;;;;;;;;;5032827;28;20033;-53
2021/10/13 05:46:34;;;;;;;2.75;1.92;;;;;;;;;;5033752;28;20072;-53
2021/10/13 05:49:00;;;;;;;4.35;2.22;;;;;;;;;;5033173;28;20482;-53
2021/10/13 05:51:26;;;;;;;3.45;1.98;;;;;;;;;;5032896;28;20094;-53
2021/10/13 05:53:52;;;;;;;4.13;1.77;;;;;;;;;;5032354;28;20352;-53
2021/10/13 05:56:18;;;;;;;3.20;1.95;;;;;;;;;;5033429;28;20037;-53
2021/10/13 05:58:44;;;;;;;4.85;2.63;;;;;;;;;;5033181;28;20017;-53
2021/10/13 06:01:10;;;;;;;3.53;2.38;;;;;;;;;;5033031;28;20030;-53
2021/10/13 06:03:36;;;;;;;5.40;2.08;;;;;;;;;;5030942;28;20026;-53
2021/10/13 06:06:02;;;;;;;4.15;1.90;;;;;;;;;;5033158;28;20037;-53
2021/10/13 06:08:28;;;;;;;5.53;2.28;;;;;;;;;;5033071;28;20104;-53
2021/10/13 06:10:54;;;;;;;4.63;3.00;;;;;;;;;;5032859;28;20025;-53
2021/10/13 06:13:20;;;;;;;7.97;2.25;;;;;;;;;;5033187;28;20029;-53
2021/10/13 06:15:50;;;;;;;3.92;1.98;;;;;;;;;;5032394;28;20512;-53
2021/10/13 06:18:16;;;;;;;4.25;2.40;;;;;;;;;;5032934;28;20024;-54
2021/10/13 06:20:42;;;;;;;5.45;2.65;;;;;;;;;;5033038;28;20030;-53
2021/10/13 06:23:08;;;;;;;4.30;2.58;;;;;;;;;;5032916;28;20455;-53
2021/10/13 06:25:34;;;;;;;3.03;2.13;;;;;;;;;;5032085;28;20112;-53
2021/10/13 06:28:00;;;;;;;9.30;2.45;;;;;;;;;;5033127;28;20026;-53
2021/10/13 06:30:28;;;;;;;5.55;2.72;;;;;;;;;;5032555;28;20518;-53
2021/10/13 06:32:54;;;;;;;8.82;2.97;;;;;;;;;;5032565;28;20029;-53
2021/10/13 06:35:20;;;;;;;4.50;2.65;;;;;;;;;;5032177;28;20033;-53
2021/10/13 06:37:48;;;;;;;4.65;2.03;;;;;;;;;;5032821;28;20040;-53
2021/10/13 06:40:14;;;;;;;6.50;2.63;;;;;;;;;;5032845;28;20402;-54
2021/10/13 06:42:41;;;;;;;3.75;2.28;;;;;;;;;;5032795;28;20410;-53
2021/10/13 06:45:08;;;;;;;3.50;2.42;;;;;;;;;;5031629;28;20021;-53
2021/10/13 06:47:34;;;;;;;4.72;2.20;;;;;;;;;;5032443;28;20108;-53
2021/10/13 06:50:00;;;;;;;4.65;2.60;;;;;;;;;;5032708;28;20036;-53
2021/10/13 06:52:26;;;;;;;4.90;3.08;;;;;;;;;;5032784;28;20030;-53
2021/10/13 06:54:52;;;;;;;3.97;2.72;;;;;;;;;;5031436;28;20040;-54
2021/10/13 06:57:18;;;;;;;4.18;2.60;;;;;;;;;;5033151;28;20034;-53
2021/10/13 06:59:44;;;;;;;3.85;2.45;;;;;;;;;;5032051;28;20021;-53
2021/10/13 07:02:10;;;;;;;6.30;3.03;;;;;;;;;;5030864;28;20501;-54
2021/10/13 07:04:36;;;;;;;5.05;2.78;;;;;;;;;;5034405;28;20021;-54
2021/10/13 07:07:02;;;;;;;4.20;2.40;;;;;;;;;;5036617;28;20025;-53
2021/10/13 07:09:28;;;;;;;4.53;2.53;;;;;;;;;;5036334;28;20088;-53
2021/10/13 07:11:54;;;;;;;3.97;2.10;;;;;;;;;;5036444;28;20443;-54
2021/10/13 07:14:20;;;;;;;3.97;2.13;;;;;;;;;;5035299;28;20037;-53
2021/10/13 07:16:46;;;;;;;9.52;2.63;;;;;;;;;;5036208;28;20091;-53
2021/10/13 07:19:12;;;;;;;4.00;2.58;;;;;;;;;;5036184;28;20362;-53
2021/10/13 07:21:38;;;;;;;3.42;2.35;;;;;;;;;;5036293;28;20025;-53
2021/10/13 07:24:04;;;;;;;5.63;2.60;;;;;;;;;;5035184;28;20095;-53
2021/10/13 07:26:33;;;;;;;4.93;3.03;;;;;;;;;;5036049;28;20025;-53
2021/10/13 07:28:59;;;;;;;6.50;3.03;;;;;;;;;;5036282;28;20017;-53
2021/10/13 07:31:27;;;;;;;7.40;3.17;;;;;;;;;;5035511;28;20038;-53
2021/10/13 07:33:53;;;;;;;4.60;3.03;;;;;;;;;;5035597;28;20095;-53
2021/10/13 07:36:19;;;;;;;4.63;3.10;;;;;;;;;;5036128;28;20038;-53
2021/10/13 07:38:46;;;;;;;4.05;2.47;;;;;;;;;;5035717;28;20033;-54
2021/10/13 07:41:12;;;;;;;4.13;2.78;;;;;;;;;;5035933;28;20083;-54
2021/10/13 07:43:38;;;;;;;5.57;2.70;;;;;;;;;;5035009;28;20452;-53
2021/10/13 07:46:04;;;;;;;4.30;3.17;;;;;;;;;;5035742;28;20034;-53
2021/10/13 07:48:30;;;;;;;7.13;3.17;;;;;;;;;;5036088;28;20037;-53
2021/10/13 07:50:56;;;;;;;7.20;3.25;;;;;;;;;;5035842;28;20459;-54
2021/10/13 07:53:23;;;;;;;4.40;2.80;;;;;;;;;;5035450;28;20036;-53
2021/10/13 07:55:49;;;;;;;13.70;4.93;;;;;;;;;;5034708;28;20044;-53
2021/10/13 07:58:15;;;;;;;12.85;4.97;;;;;;;;;;5035662;28;20017;-54
2021/10/13 08:00:41;;;;;;;6.05;3.17;;;;;;;;;;5035694;28;20080;-53
2021/10/13 08:03:07;;;;;;;10.98;4.05;;;;;;;;;;5034116;28;20026;-54
2021/10/13 08:05:33;;;;;;;5.50;2.88;;;;;;;;;;5034370;28;20116;-53
2021/10/13 08:08:00;;;;;;;7.05;3.40;;;;;;;;;;5035528;28;20049;-53
2021/10/13 08:10:26;;;;;;;7.97;3.35;;;;;;;;;;5035580;28;20032;-54
2021/10/13 08:12:52;;;;;;;3.60;2.33;;;;;;;;;;5035288;28;20340;-54
2021/10/13 08:15:18;;;;;;;9.88;2.50;;;;;;;;;;5033721;28;20116;-54
2021/10/13 08:17:44;;;;;;;10.23;3.20;;;;;;;;;;5035151;28;20355;-53
2021/10/13 08:20:11;;;;;;;6.07;2.15;;;;;;;;;;5034666;28;20018;-53
2021/10/13 08:22:41;;;;;;;5.43;3.00;;;;;;;;;;5035197;28;20030;-54
2021/10/13 08:25:08;;;;;;;3.92;1.88;;;;;;;;;;5034161;28;20021;-53
2021/10/13 08:27:34;;;;;;;4.97;2.47;;;;;;;;;;5034943;28;20052;-54
2021/10/13 08:30:00;;;;;;;3.13;1.98;;;;;;;;;;5034802;28;20034;-54
2021/10/13 08:32:26;;;;;;;5.47;2.42;;;;;;;;;;5035133;28;20025;-53
2021/10/13 08:34:52;;;;;;;8.45;3.28;;;;;;;;;;5033805;28;20033;-53
2021/10/13 08:37:18;;;;;;;9.07;4.30;;;;;;;;;;5035112;28;20035;-53
2021/10/13 08:39:44;;;;;;;5.57;2.90;;;;;;;;;;5035003;28;20040;-54
2021/10/13 08:42:10;;;;;;;7.72;3.45;;;;;;;;;;5034398;28;20117;-53
2021/10/13 08:44:39;;;;;;;2.70;1.80;;;;;;;;;;5037089;28;20014;-53
2021/10/13 08:47:08;;;;;;;4.20;2.13;;;;;;;;;;5039870;28;20030;-53
2021/10/13 08:49:34;;;;;;;5.70;2.30;;;;;;;;;;5048310;28;20033;-53
2021/10/13 08:52:07;;;;;;;2.55;1.70;;;;;;;;;;5054430;28;20087;-53
2021/10/13 08:54:33;;;;;;;8.07;2.47;;;;;;;;;;5034241;28;20043;-53
2021/10/13 08:56:59;;;;;;;3.55;2.10;;;;;;;;;;5034580;28;20026;-54
2021/10/13 08:59:41;;;;;;;5.43;2.40;;;;;;;;;;5033895;28;20092;-53
2021/10/13 09:02:07;;;;;;;5.03;1.75;;;;;;;;;;5032568;28;20359;-53
2021/10/13 09:04:33;;;;;;;2.03;1.33;;;;;;;;;;5033858;28;20056;-53
2021/10/13 09:07:03;;;;;;;5.20;1.83;;;;;;;;;;5033975;28;20065;-53
2021/10/13 09:09:29;;;;;;;4.22;1.67;;;;;;;;;;5034567;28;20113;-53
2021/10/13 09:11:55;;;;;;;1.80;1.27;;;;;;;;;;5033929;28;20490;-53
2021/10/13 09:14:21;;;;;;;2.63;1.58;;;;;;;;;;5033300;28;20117;-54
2021/10/13 09:16:53;;;;;;;2.65;1.40;;;;;;;;;;5033892;28;20124;-53
2021/10/13 09:19:20;;;;;;;1.23;1.13;;;;;;;;;;5033885;28;20025;-54
2021/10/13 09:22:12;;;;;;;1.63;1.17;;;;;;;;;;5033629;28;20034;-53
2021/10/13 09:24:43;;;;;;;3.95;2.33;;;;;;;;;;5032125;28;20120;-53
2021/10/13 09:27:21;;;;;;;4.57;1.55;;;;;;;;;;5032913;28;20367;-54
2021/10/13 09:29:48;;;;;;;4.00;1.58;;;;;;;;;;5033925;28;20033;-53
2021/10/13 09:32:14;;;;;;;4.30;1.33;;;;;;;;;;5033394;28;20021;-53
2021/10/13 09:34:47;;;;;;;3.95;1.27;;;;;;;;;;5032807;28;20136;-53
2021/10/13 09:37:13;;;;;;;3.70;1.25;;;;;;;;;;5033725;28;20029;-53
2021/10/13 09:39:39;;;;;;;3.40;1.52;;;;;;;;;;5033627;28;20448;-53
2021/10/13 09:42:07;;;;;;;1.30;1.00;;;;;;;;;;5033289;28;20105;-53
2021/10/13 09:44:43;;;;;;;1.08;1.00;;;;;;;;;;5033097;28;20034;-53
2021/10/13 09:47:10;;;;;;;2.92;1.20;;;;;;;;;;5033089;28;20048;-54
2021/10/13 09:49:41;;;;;;;5.28;1.30;;;;;;;;;;5033404;28;20403;-54
2021/10/13 09:52:11;;;;;;;2.33;1.15;;;;;;;;;;5033321;28;20021;-53
2021/10/13 09:54:38;;;;;;;1.25;0.85;;;;;;;;;;5033009;28;20025;-53
2021/10/13 09:57:34;;;;;;;2.97;1.10;;;;;;;;;;5033252;28;20446;-54
2021/10/13 10:00:13;;;;;;;3.05;1.35;;;;;;;;;;5011156;28;20034;-54
2021/10/13 10:02:38;;;;;;;4.00;1.52;;;;;;;;;;5009363;28;20025;-53
2021/10/13 10:05:07;;;;;;;4.60;1.27;;;;;;;;;;5010155;28;20364;-53
2021/10/13 10:07:34;;;;;;;1.52;1.10;;;;;;;;;;5010789;28;20033;-53
2021/10/13 10:10:11;;;;;;;1.50;1.13;;;;;;;;;;5011197;28;20048;-53
2021/10/13 10:12:55;;;;;;;8.02;3.38;;;;;;;;;;5011007;28;20034;-53
2021/10/13 10:15:53;;;;;;;2.30;1.15;;;;;;;;;;5010026;28;20029;-54
2021/10/13 10:18:35;;;;;;;2.92;1.42;;;;;;;;;;4952206;28;20039;-54
2021/10/13 10:21:18;;;;;;;2.15;1.27;;;;;;;;;;4952492;28;20045;-53
2021/10/13 10:23:45;;;;;;;1.35;1.10;;;;;;;;;;4935743;29;20433;-53
2021/10/13 10:26:27;;;;;;;2.38;1.40;;;;;;;;;;4952210;29;20345;-53
2021/10/13 10:28:53;;;;;;;3.67;1.10;;;;;;;;;;4952376;29;20199;-53
2021/10/13 10:31:28;;;;;;;1.38;1.02;;;;;;;;;;4952115;28;20042;-54
2021/10/13 10:34:03;;;;;;;2.88;0.80;;;;;;;;;;4951773;29;20044;-54
2021/10/13 10:36:49;;;;;;;0.70;0.60;;;;;;;;;;4973062;28;20100;-54
2021/10/13 10:39:16;;;;;;;0.73;0.60;;;;;;;;;;4996871;28;20064;-54
2021/10/13 10:41:52;;;;;;;0.73;0.73;;;;;;;;;;4997367;28;20457;-54
2021/10/13 10:44:37;;;;;;;1.42;1.15;;;;;;;;;;4996765;28;20456;-54
2021/10/13 10:47:03;;;;;;;1.10;0.80;;;;;;;;;;4997165;28;20416;-54
2021/10/13 10:49:46;;;;;;;1.52;1.00;;;;;;;;;;4997469;28;20041;-54
2021/10/13 10:52:14;;;;;;;1.02;0.70;;;;;;;;;;4997405;28;20026;-54
2021/10/13 10:54:40;;;;;;;1.27;1.00;;;;;;;;;;5030652;28;20116;-54
2021/10/13 10:57:29;;;;;;;1.15;0.70;;;;;;;;;;5038978;28;20456;-54
2021/10/13 10:59:55;;;;;;;0.85;0.70;;;;;;;;;;5039344;28;20367;-53
2021/10/13 11:02:22;;;;;;;2.13;0.88;;;;;;;;;;5037497;28;20107;-54
2021/10/13 11:05:05;;;;;;;1.85;1.35;;;;;;;;;;5038272;28;20528;-53
2021/10/13 11:07:32;;;;;;;0.73;0.65;;;;;;;;;;5039342;28;20176;-54
2021/10/13 11:10:01;;;;;;;2.72;0.93;;;;;;;;;;5039170;28;20053;-53
2021/10/13 11:12:27;;;;;;;0.63;0.63;;;;;;;;;;5039438;28;20021;-53
2021/10/13 11:15:09;;;;;;;2.33;0.90;;;;;;;;;;5038212;28;20410;-53
2021/10/13 11:17:35;;;;;;;0.90;0.80;;;;;;;;;;5038812;28;20045;-53
2021/10/13 11:20:11;;;;;;;2.85;0.70;;;;;;;;;;5038525;28;20025;-53
2021/10/13 11:22:37;;;;;;;1.27;0.73;;;;;;;;;;5039208;28;20025;-53
2021/10/13 11:25:13;;;;;;;0.80;0.70;;;;;;;;;;5038608;28;20363;-53
2021/10/13 11:27:39;;;;;;;0.60;0.60;;;;;;;;;;5039166;28;20025;-53
2021/10/13 11:30:18;;;;;;;1.00;0.90;;;;;;;;;;5038715;28;20379;-52
2021/10/13 11:32:44;;;;;;;0.80;0.80;;;;;;;;;;5038558;28;20483;-54
2021/10/13 11:35:10;;;;;;;1.40;0.82;;;;;;;;;;5038478;28;20053;-53
2021/10/13 11:37:36;;;;;;;0.80;0.77;;;;;;;;;;5038692;28;20029;-53
2021/10/13 11:40:03;;;;;;;1.70;0.70;;;;;;;;;;5039154;28;20356;-53
2021/10/13 11:42:31;;;;;;;3.65;0.80;;;;;;;;;;5038796;28;20030;-53
2021/10/13 11:44:57;;;;;;;1.27;0.80;;;;;;;;;;5038165;28;20036;-53
2021/10/13 11:47:33;;;;;;;1.50;1.25;;;;;;;;;;5037772;28;20037;-53
2021/10/13 11:50:01;;;;;;;3.78;0.88;;;;;;;;;;5036355;28;20025;-53
2021/10/13 11:52:27;;;;;;;1.38;1.02;;;;;;;;;;5035749;28;20018;-53
2021/10/13 11:54:56;;;;;;;3.05;0.82;;;;;;;;;;5035227;28;20034;-53
2021/10/13 11:57:23;;;;;;;0.70;0.65;;;;;;;;;;5035342;28;20407;-54
2021/10/13 12:00:07;;;;;;;0.60;0.57;;;;;;;;;;5035485;28;20032;-53
2021/10/13 12:02:33;;;;;;;1.38;0.85;;;;;;;;;;5033935;28;20037;-53
2021/10/13 12:05:02;;;;;;;1.10;0.80;;;;;;;;;;5034751;28;20499;-53
2021/10/13 12:07:28;;;;;;;1.52;0.70;;;;;;;;;;5034946;28;20104;-53
2021/10/13 12:09:59;;;;;;;2.40;0.63;;;;;;;;;;5035737;28;20116;-54
2021/10/13 12:12:24;;;;;;;;;;;;;;;;;;5035627;28;20026;-53
2021/10/13 12:14:51;;;;;;;7.50;1.00;;;;;;;;;;5034354;28;19958;-54
2021/10/13 12:17:30;;;;;;;2.80;1.05;;;;;;;;;;5034998;28;20073;-54
2021/10/13 12:19:56;;;;;;;4.63;1.15;;;;;;;;;;5034933;28;20026;-53
2021/10/13 12:22:22;;;;;;;7.47;2.50;;;;;;;;;;5035318;28;20057;-54
2021/10/13 12:24:50;;;;;;;4.38;1.85;;;;;;;;;;5034605;28;20083;-53
2021/10/13 12:27:27;;;;;;;2.22;1.17;;;;;;;;;;5035549;28;20099;-53
2021/10/13 12:29:53;;;;;;;1.05;0.95;;;;;;;;;;5034627;28;20065;-54
2021/10/13 12:32:20;;;;;;;2.17;1.13;;;;;;;;;;5035203;28;20030;-54
2021/10/13 12:34:46;;;;;;;1.05;1.00;;;;;;;;;;5033761;28;20036;-53
2021/10/13 12:37:12;;;;;;;2.00;1.45;;;;;;;;;;5035320;28;20056;-53
2021/10/13 12:39:38;;;;;;;0.90;0.90;;;;;;;;;;5034552;28;20065;-53
2021/10/13 12:42:06;;;;;;;3.65;1.20;;;;;;;;;;5034908;28;20026;-53
2021/10/13 12:44:32;;;;;;;1.95;1.02;;;;;;;;;;5034230;28;20109;-53
2021/10/13 12:47:00;;;;;;;2.00;1.00;;;;;;;;;;5035042;28;20437;-53
2021/10/13 12:49:29;;;;;;;0.90;0.90;;;;;;;;;;5034043;28;20075;-53
2021/10/13 12:52:08;;;;;;;3.33;1.20;;;;;;;;;;5034964;28;20056;-53
2021/10/13 12:54:41;;;;;;;1.52;0.98;;;;;;;;;;5033894;28;20030;-53
2021/10/13 12:57:11;;;;;;;1.33;0.95;;;;;;;;;;5034823;28;20043;-53
2021/10/13 12:59:37;;;;;;;;;;;;;;;;;;5034453;28;20104;-53
2021/10/13 13:02:03;;;;;;;1.80;0.82;;;;;;;;;;5032057;28;20080;-54
2021/10/13 13:04:29;;;;;;;3.83;1.95;;;;;;;;;;5033314;28;20581;-54
2021/10/13 13:06:55;;;;;;;1.80;1.30;;;;;;;;;;5034363;28;20148;-53
2021/10/13 13:09:21;;;;;;;2.50;1.23;;;;;;;;;;5034375;28;20025;-53
2021/10/13 13:11:48;;;;;;;2.78;1.10;;;;;;;;;;5034347;28;20021;-54
2021/10/13 13:14:14;;;;;;;1.63;1.00;;;;;;;;;;5033507;28;20037;-53
2021/10/13 13:16:40;;;;;;;1.65;0.80;;;;;;;;;;5033941;28;20037;-54
2021/10/13 13:19:06;;;;;;;3.67;1.13;;;;;;;;;;5034048;28;20155;-54
2021/10/13 13:21:32;;;;;;;2.13;0.90;;;;;;;;;;5034012;28;20084;-53
2021/10/13 13:23:58;;;;;;;0.45;0.45;;;;;;;;;;5033412;28;20049;-54
2021/10/13 13:26:24;;;;;;;2.97;1.27;;;;;;;;;;5033482;28;20455;-53
2021/10/13 13:28:50;;;;;;;3.60;0.85;;;;;;;;;;5033811;28;20037;-53
2021/10/13 13:31:16;;;;;;;1.10;0.60;;;;;;;;;;5033792;28;20076;-53
2021/10/13 13:33:43;;;;;;;2.22;0.88;;;;;;;;;;5032823;28;20410;-53
2021/10/13 13:36:16;;;;;;;2.65;1.08;;;;;;;;;;5033699;28;20087;-53
2021/10/13 13:38:42;;;;;;;0.70;0.70;;;;;;;;;;5033652;28;20026;-53
2021/10/13 13:41:08;;;;;;;1.23;0.82;;;;;;;;;;5033721;28;20025;-53
2021/10/13 13:43:34;;;;;;;0.63;0.60;;;;;;;;;;5032941;28;20586;-54
2021/10/13 13:46:01;;;;;;;1.13;0.68;;;;;;;;;;5033803;28;20436;-53
2021/10/13 13:48:30;;;;;;;0.60;0.60;;;;;;;;;;5033777;28;20025;-53
2021/10/13 13:50:56;;;;;;;1.02;0.90;;;;;;;;;;5032863;28;20629;-53
2021/10/13 13:53:26;;;;;;;5.18;1.40;;;;;;;;;;5033419;28;20029;-53
2021/10/13 13:55:53;;;;;;;7.97;2.00;;;;;;;;;;5033300;28;20044;-54
2021/10/13 13:58:19;;;;;;;0.73;0.70;;;;;;;;;;5033549;28;20026;-53
2021/10/13 14:00:45;;;;;;;0.70;0.70;;;;;;;;;;5033491;28;20021;-54
2021/10/13 14:03:11;;;;;;;0.98;0.73;;;;;;;;;;5032498;28;20028;-53
2021/10/13 14:05:37;;;;;;;1.67;0.80;;;;;;;;;;5031735;28;20479;-53
2021/10/13 14:08:04;;;;;;;6.30;2.05;;;;;;;;;;5033272;28;20040;-53
2021/10/13 14:10:30;;;;;;;11.60;2.47;;;;;;;;;;5033294;28;20037;-53
2021/10/13 14:12:56;;;;;;;5.53;2.00;;;;;;;;;;5032698;28;20022;-53
2021/10/13 14:15:22;;;;;;;2.95;1.55;;;;;;;;;;5032424;28;20033;-53
2021/10/13 14:17:48;;;;;;;0.80;0.80;;;;;;;;;;5033398;28;20032;-54
2021/10/13 14:20:14;;;;;;;1.35;1.00;;;;;;;;;;5032437;28;20018;-53
2021/10/13 14:22:40;;;;;;;4.25;1.40;;;;;;;;;;5033129;28;20025;-53
2021/10/13 14:25:07;;;;;;;1.15;1.00;;;;;;;;;;5032354;28;20486;-53
2021/10/13 14:27:33;;;;;;;5.03;1.77;;;;;;;;;;5032689;28;20037;-53
2021/10/13 14:29:59;;;;;;;1.40;1.20;;;;;;;;;;5032933;28;20043;-53
2021/10/13 14:32:25;;;;;;;4.10;1.20;;;;;;;;;;5032899;28;20488;-54
2021/10/13 14:34:53;;;;;;;1.23;0.82;;;;;;;;;;5031952;28;20071;-53
2021/10/13 14:37:19;;;;;;;2.00;1.30;;;;;;;;;;5033142;28;20129;-54
2021/10/13 14:39:46;;;;;;;3.85;1.17;;;;;;;;;;5032850;28;20021;-54
2021/10/13 14:42:13;;;;;;;5.90;1.60;;;;;;;;;;5032914;28;20025;-53
2021/10/13 14:44:39;;;;;;;3.38;1.77;;;;;;;;;;5035474;28;20017;-54
2021/10/13 14:47:05;;;;;;;3.17;1.80;;;;;;;;;;5051791;28;20573;-54